Startpagina
METAR-TAF:

METAR-TAF

Vliegvelden :

Bric della Croce

Turijn, Italië

breedte: 45-02N, lengte: 007-44E, hoogte: 709 m

Actueel weer

Dit bericht is 29 minuten geleden gemaakt, om 19:55 UTC
Wind 4 kt uit het zuidzuidwesten
Temperatuur 17°C
Vochtigheid 68%
Druk 1016 hPa
Zicht 10 km of meer
geen wolken onder 1500 m en geen cumulonimbus

METAR: LIMK 311955Z 20004KT CAVOK 17/11 Q1016 RMK SKC VAL NIL VIS MIN 9999

Tijdstip: 22:24 (20:24 UTC)


TAF: ontbreekt

Waarnemingen en weersverwachtingen van meer dan 4000 vliegvelden (METAR en TAF).

De beschikbare stations zijn de gele en rode punten op de kaart.

Ga met uw muis naar het station om de naam te zien.

Klik dan om waarnemingen en weersverwachtingen te zien.

kaart wijzigen: klik op de groene knoppen met een zwart kruis om in te zoomen, op de groene knop met een streepje om uit te zoomen of op de groene pijlen voor aangrenzende kaarten.


METAR-TAF: